createdAt,value
2023-08-08T00:02:15.126Z,101473.00
2023-08-08T00:04:41.582Z,101474.69
2023-08-08T00:07:08.113Z,101476.34
2023-08-08T00:09:34.630Z,101449.88
2023-08-08T00:12:01.210Z,101468.38
2023-08-08T00:14:27.833Z,101463.59
2023-08-08T00:16:54.265Z,101450.25
2023-08-08T00:19:20.815Z,101454.09
2023-08-08T00:21:47.288Z,101461.59
2023-08-08T00:24:13.719Z,101455.63
2023-08-08T00:26:40.155Z,101434.59
2023-08-08T00:29:07.385Z,101445.47
2023-08-08T00:31:33.881Z,101448.16
2023-08-08T00:34:00.346Z,101452.56
2023-08-08T00:36:26.917Z,101447.84
2023-08-08T00:38:53.355Z,101426.41
2023-08-08T00:41:19.834Z,101419.41
2023-08-08T00:43:46.280Z,101423.06
2023-08-08T00:46:12.922Z,101438.56
2023-08-08T00:48:39.558Z,101437.22
2023-08-08T00:51:06.329Z,101447.25
2023-08-08T00:53:32.825Z,101425.09
2023-08-08T00:55:59.842Z,101444.94
2023-08-08T00:58:26.780Z,101446.75
2023-08-08T01:00:55.867Z,101458.22
2023-08-08T01:03:22.538Z,101443.94
2023-08-08T01:05:56.849Z,101409.78
2023-08-08T01:08:35.146Z,101426.75
2023-08-08T01:11:02.866Z,101448.28
2023-08-08T01:13:32.868Z,101433.41
2023-08-08T01:16:00.867Z,101420.63
2023-08-08T01:18:28.260Z,101442.13
2023-08-08T01:20:55.645Z,101436.13
2023-08-08T01:23:42.118Z,101412.66
2023-08-08T01:26:08.647Z,101418.31
2023-08-08T01:28:36.173Z,101438.47
2023-08-08T01:31:02.740Z,101436.13
2023-08-08T01:33:29.200Z,101414.53
2023-08-08T01:36:05.967Z,101388.00
2023-08-08T01:38:41.744Z,101439.28
2023-08-08T01:41:09.472Z,101419.97
2023-08-08T01:43:39.174Z,101421.34
2023-08-08T01:46:06.725Z,101435.00
2023-08-08T01:48:33.935Z,101402.03
2023-08-08T01:51:00.948Z,101411.50
2023-08-08T01:53:27.618Z,101414.81
2023-08-08T01:55:54.078Z,101407.53
2023-08-08T01:58:20.602Z,101413.88
2023-08-08T02:00:47.918Z,101392.22
2023-08-08T02:03:14.569Z,101411.38
2023-08-08T02:05:41.220Z,101415.03
2023-08-08T02:08:07.650Z,101380.41
2023-08-08T02:10:34.251Z,101409.50
2023-08-08T02:13:00.702Z,101407.34
2023-08-08T02:15:27.134Z,101388.84
2023-08-08T02:17:53.648Z,101405.47
2023-08-08T02:20:20.267Z,101390.59
2023-08-08T02:22:46.709Z,101403.28
2023-08-08T02:25:13.345Z,101398.75
2023-08-08T02:27:39.802Z,101402.53
2023-08-08T02:30:06.955Z,101401.88
2023-08-08T02:32:33.467Z,101392.19
2023-08-08T02:35:00.035Z,101385.03
2023-08-08T02:37:26.516Z,101404.81
2023-08-08T02:39:53.059Z,101405.84
2023-08-08T02:42:19.504Z,101405.13
2023-08-08T02:44:45.986Z,101399.16
2023-08-08T02:47:12.466Z,101393.78
2023-08-08T02:49:38.944Z,101379.31
2023-08-08T02:52:05.622Z,101408.13
2023-08-08T02:54:32.047Z,101391.81
2023-08-08T02:56:58.512Z,101401.44
2023-08-08T02:59:24.933Z,101386.44
2023-08-08T03:01:51.391Z,101395.44
2023-08-08T03:04:17.988Z,101402.56
2023-08-08T03:06:44.443Z,101392.13
2023-08-08T03:09:10.886Z,101387.75
2023-08-08T03:11:38.512Z,101395.25
2023-08-08T03:14:04.989Z,101382.44
2023-08-08T03:16:31.438Z,101358.91
2023-08-08T03:18:57.871Z,101380.44
2023-08-08T03:21:24.317Z,101388.59
2023-08-08T03:23:50.770Z,101374.06
2023-08-08T03:26:17.244Z,101377.41
2023-08-08T03:28:43.822Z,101374.38
2023-08-08T03:31:10.332Z,101363.53
2023-08-08T03:33:36.791Z,101383.69
2023-08-08T03:36:03.306Z,101372.84
2023-08-08T03:38:29.734Z,101378.00
2023-08-08T03:40:56.191Z,101355.00
2023-08-08T03:43:22.654Z,101359.47
2023-08-08T03:45:50.067Z,101377.41
2023-08-08T03:48:16.676Z,101346.97
2023-08-08T03:50:43.159Z,101352.44
2023-08-08T03:53:09.587Z,101372.56
2023-08-08T03:55:36.059Z,101368.25
2023-08-08T03:58:02.593Z,101365.25
2023-08-08T04:00:29.043Z,101364.09
2023-08-08T04:02:55.713Z,101368.41
2023-08-08T04:05:22.201Z,101369.53
2023-08-08T04:07:48.658Z,101359.38
2023-08-08T04:10:15.244Z,101350.00
2023-08-08T04:12:41.689Z,101345.31
2023-08-08T04:15:08.655Z,101357.78
2023-08-08T04:17:35.129Z,101346.13
2023-08-08T04:20:01.672Z,101335.97
2023-08-08T04:22:28.088Z,101355.00
2023-08-08T04:24:54.536Z,101350.84
2023-08-08T04:27:20.958Z,101348.78
2023-08-08T04:29:47.392Z,101353.78
2023-08-08T04:32:13.845Z,101360.78
2023-08-08T04:34:40.301Z,101357.13
2023-08-08T04:37:06.762Z,101349.47
2023-08-08T04:39:33.291Z,101340.97
2023-08-08T04:42:00.021Z,101356.81
2023-08-08T04:44:26.665Z,101353.19
2023-08-08T04:46:53.233Z,101333.31
2023-08-08T04:49:19.650Z,101345.91
2023-08-08T04:51:46.084Z,101354.84
2023-08-08T04:54:12.523Z,101350.06
2023-08-08T04:56:38.976Z,101359.84
2023-08-08T04:59:05.431Z,101364.78
2023-08-08T05:01:31.915Z,101361.16
2023-08-08T05:03:58.458Z,101361.66
2023-08-08T05:06:25.023Z,101340.38
2023-08-08T05:08:52.902Z,101351.91
2023-08-08T05:11:19.340Z,101349.91
2023-08-08T05:13:46.010Z,101355.69
2023-08-08T05:16:12.514Z,101351.91
2023-08-08T05:18:39.030Z,101345.38
2023-08-08T05:21:05.467Z,101356.22
2023-08-08T05:23:31.930Z,101346.59
2023-08-08T05:25:58.422Z,101353.88
2023-08-08T05:28:25.004Z,101346.13
2023-08-08T05:30:51.480Z,101360.16
2023-08-08T05:33:17.904Z,101363.81
2023-08-08T05:35:44.348Z,101361.81
2023-08-08T05:38:10.907Z,101365.16
2023-08-08T05:40:37.450Z,101370.47
2023-08-08T05:43:04.652Z,101365.44
2023-08-08T05:45:31.147Z,101354.53
2023-08-08T05:47:57.786Z,101353.03
2023-08-08T05:50:24.529Z,101370.84
2023-08-08T05:52:50.950Z,101375.31
2023-08-08T05:55:17.551Z,101367.88
2023-08-08T05:57:44.040Z,101370.38
2023-08-08T06:00:12.581Z,101356.22
2023-08-08T06:02:39.199Z,101375.09
2023-08-08T06:05:06.491Z,101373.91
2023-08-08T06:07:33.040Z,101348.47
2023-08-08T06:09:59.494Z,101377.94
2023-08-08T06:12:25.922Z,101355.31
2023-08-08T06:14:52.350Z,101361.88
2023-08-08T06:17:18.801Z,101375.22
2023-08-08T06:19:45.323Z,101371.72
2023-08-08T06:22:12.600Z,101362.78
2023-08-08T06:24:40.114Z,101381.28
2023-08-08T06:27:06.697Z,101381.97
2023-08-08T06:29:33.208Z,101355.78
2023-08-08T06:31:59.986Z,101370.50
2023-08-08T06:34:26.828Z,101380.34
2023-08-08T06:36:53.413Z,101378.25
2023-08-08T06:39:22.270Z,101378.06
2023-08-08T06:41:49.122Z,101377.06
2023-08-08T06:44:15.658Z,101387.75
2023-08-08T06:46:42.096Z,101377.66
2023-08-08T06:49:09.906Z,101371.22
2023-08-08T06:51:36.490Z,101382.03
2023-08-08T06:54:03.104Z,101372.50
2023-08-08T06:56:29.985Z,101380.00
2023-08-08T06:58:56.462Z,101378.72
2023-08-08T07:01:22.975Z,101375.09
2023-08-08T07:03:49.593Z,101366.44
2023-08-08T07:06:19.065Z,101356.31
2023-08-08T07:08:45.516Z,101369.81
2023-08-08T07:11:11.969Z,101368.66
2023-08-08T07:13:38.440Z,101380.03
2023-08-08T07:16:05.260Z,101355.41
2023-08-08T07:18:31.824Z,101365.09
2023-08-08T07:20:58.302Z,101381.75
2023-08-08T07:23:24.870Z,101367.97
2023-08-08T07:25:51.882Z,101364.94
2023-08-08T07:28:18.898Z,101363.47
2023-08-08T07:30:45.513Z,101370.47
2023-08-08T07:33:12.008Z,101338.34
2023-08-08T07:35:38.480Z,101371.16
2023-08-08T07:38:05.057Z,101361.69
2023-08-08T07:40:32.277Z,101371.00
2023-08-08T07:42:58.792Z,101349.88
2023-08-08T07:45:25.271Z,101348.22
2023-08-08T07:47:51.735Z,101353.88
2023-08-08T07:50:18.248Z,101361.19
2023-08-08T07:52:44.698Z,101340.88
2023-08-08T07:55:11.240Z,101352.88
2023-08-08T07:57:37.684Z,101350.19
2023-08-08T08:00:12.621Z,101356.03
2023-08-08T08:02:40.417Z,101328.28
2023-08-08T08:05:08.901Z,101356.56
2023-08-08T08:07:36.137Z,101357.69
2023-08-08T08:10:04.144Z,101356.88
2023-08-08T08:12:31.801Z,101352.19
2023-08-08T08:14:59.195Z,101347.53
2023-08-08T08:17:25.857Z,101348.56
2023-08-08T08:19:52.626Z,101343.38
2023-08-08T08:22:19.148Z,101352.06
2023-08-08T08:24:47.081Z,101336.72
2023-08-08T08:27:14.262Z,101357.19
2023-08-08T08:29:41.043Z,101351.38
2023-08-08T08:32:07.642Z,101354.72
2023-08-08T08:34:34.099Z,101341.91
2023-08-08T08:37:00.550Z,101315.91
2023-08-08T08:39:26.972Z,101342.88
2023-08-08T08:41:59.961Z,101346.69
2023-08-08T08:44:28.750Z,101353.50
2023-08-08T08:46:56.724Z,101354.66
2023-08-08T08:49:23.801Z,101364.16
2023-08-08T08:51:50.364Z,101370.47
2023-08-08T08:54:17.983Z,101360.13
2023-08-08T08:56:46.319Z,101368.94
2023-08-08T08:59:12.824Z,101374.47
2023-08-08T09:01:39.855Z,101362.50
2023-08-08T09:04:08.769Z,101379.16
2023-08-08T09:06:36.361Z,101366.16
2023-08-08T09:09:15.343Z,101362.19
2023-08-08T09:11:48.551Z,101358.19
2023-08-08T09:14:22.059Z,101366.81
2023-08-08T09:16:49.600Z,101335.50
2023-08-08T09:19:19.069Z,101372.41
2023-08-08T09:21:45.825Z,101372.59
2023-08-08T09:24:12.718Z,101366.75
2023-08-08T09:26:40.527Z,101368.41
2023-08-08T09:29:07.517Z,101366.53
2023-08-08T09:31:35.507Z,101358.16
2023-08-08T09:34:03.709Z,101359.59
2023-08-08T09:36:32.361Z,101366.78
2023-08-08T09:39:00.704Z,101363.97
2023-08-08T09:41:27.402Z,101370.31
2023-08-08T09:43:54.668Z,101362.31
2023-08-08T09:46:21.856Z,101366.25
2023-08-08T09:48:49.001Z,101366.91
2023-08-08T09:51:15.722Z,101372.22
2023-08-08T09:53:42.822Z,101365.59
2023-08-08T09:56:09.790Z,101365.59
2023-08-08T09:58:36.443Z,101381.25
2023-08-08T10:01:05.780Z,101372.72
2023-08-08T10:03:33.695Z,101371.25
2023-08-08T10:06:02.138Z,101339.78
2023-08-08T10:08:28.645Z,101393.34
2023-08-08T10:10:57.219Z,101379.50
2023-08-08T10:13:25.692Z,101384.63
2023-08-08T10:15:53.574Z,101380.09
2023-08-08T10:18:22.877Z,101386.47
2023-08-08T10:20:50.821Z,101367.16
2023-08-08T10:23:20.880Z,101386.22
2023-08-08T10:25:49.866Z,101341.56
2023-08-08T10:28:27.025Z,101388.59
2023-08-08T10:30:57.785Z,101398.09
2023-08-08T10:33:26.494Z,101366.09
2023-08-08T10:35:59.597Z,101392.44
2023-08-08T10:38:27.274Z,101394.81
2023-08-08T10:40:59.460Z,101383.53
2023-08-08T10:43:28.161Z,101376.47
2023-08-08T10:46:07.608Z,101378.03
2023-08-08T10:48:51.355Z,101370.41
2023-08-08T10:51:18.098Z,101392.16
2023-08-08T10:53:44.843Z,101387.13
2023-08-08T10:56:14.888Z,101374.78
2023-08-08T10:58:43.218Z,101381.19
2023-08-08T11:01:11.851Z,101374.84
2023-08-08T11:03:40.302Z,101380.19
2023-08-08T11:06:10.171Z,101373.88
2023-08-08T11:08:39.336Z,101363.16
2023-08-08T11:11:07.286Z,101373.28
2023-08-08T11:13:34.991Z,101393.03
2023-08-08T11:16:03.193Z,101383.97
2023-08-08T11:18:30.002Z,101389.44
2023-08-08T11:21:05.281Z,101397.63
2023-08-08T11:23:40.035Z,101394.31
2023-08-08T11:28:36.320Z,101391.56
2023-08-08T11:31:02.931Z,101387.22
2023-08-08T11:33:29.496Z,101390.41
2023-08-08T11:35:57.742Z,101396.22
2023-08-08T11:38:25.122Z,101386.00
2023-08-08T11:40:53.522Z,101379.06
2023-08-08T11:43:20.763Z,101382.28
2023-08-08T11:45:50.491Z,101340.91
2023-08-08T11:48:16.971Z,101363.75
2023-08-08T11:50:45.594Z,101382.75
2023-08-08T11:53:12.978Z,101376.13
2023-08-08T11:55:39.660Z,101377.44
2023-08-08T11:58:06.849Z,101368.56
2023-08-08T12:00:33.550Z,101375.38
2023-08-08T12:03:03.058Z,101376.03
2023-08-08T12:05:31.066Z,101358.53
2023-08-08T12:07:59.805Z,101357.41
2023-08-08T12:10:26.453Z,101380.38
2023-08-08T12:12:56.420Z,101363.88
2023-08-08T12:15:22.974Z,101358.88
2023-08-08T12:17:50.350Z,101369.22
2023-08-08T12:20:16.959Z,101365.81
2023-08-08T12:22:43.589Z,101364.78
2023-08-08T12:25:10.093Z,101375.03
2023-08-08T12:27:36.706Z,101379.00
2023-08-08T12:30:03.398Z,101390.00
2023-08-08T12:32:30.030Z,101375.97
2023-08-08T12:34:57.269Z,101364.50
2023-08-08T12:37:24.766Z,101367.19
2023-08-08T12:39:51.937Z,101361.28
2023-08-08T12:42:18.764Z,101383.34
2023-08-08T12:44:46.138Z,101379.19
2023-08-08T12:47:13.716Z,101380.19
2023-08-08T12:49:42.056Z,101383.22
2023-08-08T12:52:08.672Z,101368.50
2023-08-08T12:54:35.559Z,101358.44
2023-08-08T12:57:02.384Z,101369.03
2023-08-08T12:59:29.190Z,101367.72
2023-08-08T13:01:55.644Z,101381.03
2023-08-08T13:04:22.204Z,101374.47
2023-08-08T13:06:49.368Z,101344.94
2023-08-08T13:09:16.675Z,101372.38
2023-08-08T13:11:43.231Z,101384.78
2023-08-08T13:14:09.776Z,101378.19
2023-08-08T13:16:36.339Z,101376.00
2023-08-08T13:19:03.094Z,101388.84
2023-08-08T13:21:29.549Z,101387.59
2023-08-08T13:23:56.028Z,101388.56
2023-08-08T13:26:22.455Z,101377.81
2023-08-08T13:28:50.796Z,101368.56
2023-08-08T13:31:17.736Z,101378.16
2023-08-08T13:33:44.279Z,101386.81
2023-08-08T13:36:10.897Z,101390.44
2023-08-08T13:38:37.343Z,101399.66
2023-08-08T13:41:04.450Z,101392.16
2023-08-08T13:43:31.584Z,101406.09
2023-08-08T13:45:58.216Z,101400.28
2023-08-08T13:48:24.731Z,101399.00
2023-08-08T13:50:51.920Z,101392.09
2023-08-08T13:53:18.430Z,101394.03
2023-08-08T13:55:45.730Z,101399.09
2023-08-08T13:58:12.285Z,101399.19
2023-08-08T14:00:38.867Z,101403.91
2023-08-08T14:03:05.967Z,101413.81
2023-08-08T14:05:32.731Z,101408.44
2023-08-08T14:07:59.232Z,101404.84
2023-08-08T14:10:25.673Z,101411.50
2023-08-08T14:12:52.115Z,101419.41
2023-08-08T14:15:18.561Z,101422.59
2023-08-08T14:17:46.541Z,101421.56
2023-08-08T14:20:13.206Z,101421.25
2023-08-08T14:22:39.700Z,101409.09
2023-08-08T14:25:07.310Z,101403.00
2023-08-08T14:27:33.997Z,101403.56
2023-08-08T14:30:01.032Z,101387.69
2023-08-08T14:32:27.584Z,101407.91
2023-08-08T14:34:54.352Z,101397.72
2023-08-08T14:37:21.358Z,101404.19
2023-08-08T14:39:48.157Z,101397.22
2023-08-08T14:42:15.236Z,101403.09
2023-08-08T14:44:41.693Z,101394.09
2023-08-08T14:47:08.499Z,101397.78
2023-08-08T14:49:35.044Z,101388.75
2023-08-08T14:52:01.666Z,101400.91
2023-08-08T14:54:28.337Z,101398.84
2023-08-08T14:56:54.775Z,101404.13
2023-08-08T15:02:05.539Z,101391.59
2023-08-08T15:04:33.670Z,101393.28
2023-08-08T15:07:00.598Z,101403.88
2023-08-08T15:09:27.266Z,101396.03
2023-08-08T15:11:53.678Z,101398.00
2023-08-08T15:14:20.142Z,101409.16
2023-08-08T15:16:52.191Z,101401.50
2023-08-08T15:19:18.764Z,101395.69
2023-08-08T15:21:45.202Z,101406.09
2023-08-08T15:24:11.625Z,101398.06
2023-08-08T15:26:38.117Z,101403.13
2023-08-08T15:29:04.755Z,101400.38
2023-08-08T15:31:33.117Z,101414.41
2023-08-08T15:34:00.256Z,101398.19
2023-08-08T15:36:27.052Z,101391.25
2023-08-08T15:38:53.474Z,101388.97
2023-08-08T15:41:19.968Z,101405.72
2023-08-08T15:43:47.291Z,101390.44
2023-08-08T15:46:14.172Z,101399.75
2023-08-08T15:48:40.634Z,101399.00
2023-08-08T15:51:07.136Z,101393.75
2023-08-08T15:53:35.081Z,101398.81
2023-08-08T15:56:02.649Z,101394.47
2023-08-08T15:58:29.298Z,101383.13
2023-08-08T16:00:56.709Z,101374.47
2023-08-08T16:03:23.334Z,101381.56
2023-08-08T16:05:49.872Z,101361.81
2023-08-08T16:08:17.628Z,101391.69
2023-08-08T16:10:45.394Z,101401.88
2023-08-08T16:13:11.936Z,101366.75
2023-08-08T16:15:38.369Z,101391.56
2023-08-08T16:18:04.881Z,101392.56
2023-08-08T16:20:31.426Z,101388.97
2023-08-08T16:22:57.924Z,101381.94
2023-08-08T16:25:24.460Z,101411.91
2023-08-08T16:27:50.913Z,101396.00
2023-08-08T16:30:17.552Z,101391.00
2023-08-08T16:32:44.513Z,101397.34
2023-08-08T16:35:11.048Z,101391.28
2023-08-08T16:37:37.516Z,101379.19
2023-08-08T16:40:04.259Z,101392.00
2023-08-08T16:42:30.739Z,101390.19
2023-08-08T16:44:57.404Z,101398.09
2023-08-08T16:47:23.849Z,101376.69
2023-08-08T16:49:50.274Z,101390.22
2023-08-08T16:52:16.697Z,101384.03
2023-08-08T16:54:43.155Z,101377.25
2023-08-08T16:57:09.667Z,101379.47
2023-08-08T16:59:36.149Z,101367.19
2023-08-08T17:02:02.986Z,101377.50
2023-08-08T17:04:29.828Z,101370.22
2023-08-08T17:06:56.249Z,101372.88
2023-08-08T17:09:23.923Z,101368.44
2023-08-08T17:11:50.465Z,101381.78
2023-08-08T17:14:16.929Z,101380.75
2023-08-08T17:16:43.402Z,101383.72
2023-08-08T17:19:10.933Z,101380.94
2023-08-08T17:21:37.505Z,101375.81
2023-08-08T17:24:04.978Z,101377.53
2023-08-08T17:26:31.529Z,101368.56
2023-08-08T17:28:57.976Z,101372.41
2023-08-08T17:31:24.631Z,101369.63
2023-08-08T17:33:51.048Z,101364.94
2023-08-08T17:36:17.510Z,101367.78
2023-08-08T17:38:43.956Z,101363.97
2023-08-08T17:41:10.387Z,101368.97
2023-08-08T17:43:36.869Z,101364.81
2023-08-08T17:46:04.840Z,101353.00
2023-08-08T17:48:32.234Z,101350.03
2023-08-08T17:50:59.603Z,101363.03
2023-08-08T17:53:26.084Z,101352.56
2023-08-08T17:55:52.556Z,101363.97
2023-08-08T17:58:18.999Z,101352.34
2023-08-08T18:00:45.448Z,101359.16
2023-08-08T18:03:12.082Z,101339.72
2023-08-08T18:05:38.660Z,101348.34
2023-08-08T18:08:05.357Z,101340.88
2023-08-08T18:10:35.636Z,101349.84
2023-08-08T18:13:04.310Z,101336.22
2023-08-08T18:15:30.874Z,101347.84
2023-08-08T18:17:57.983Z,101342.03
2023-08-08T18:20:24.522Z,101347.19
2023-08-08T18:22:53.062Z,101344.69
2023-08-08T18:25:20.370Z,101342.38
2023-08-08T18:27:46.940Z,101346.22
2023-08-08T18:30:16.151Z,101348.72
2023-08-08T18:32:43.998Z,101350.88
2023-08-08T18:35:10.678Z,101349.03
2023-08-08T18:37:39.534Z,101309.94
2023-08-08T18:40:08.772Z,101343.06
2023-08-08T18:42:37.136Z,101339.06
2023-08-08T18:45:03.991Z,101344.91
2023-08-08T18:47:30.471Z,101339.38
2023-08-08T18:49:57.259Z,101353.88
2023-08-08T18:52:23.715Z,101340.25
2023-08-08T18:54:50.220Z,101344.56
2023-08-08T18:57:16.657Z,101331.94
2023-08-08T18:59:43.116Z,101331.41
2023-08-08T19:02:09.630Z,101333.38
2023-08-08T19:04:36.071Z,101292.16
2023-08-08T19:07:03.036Z,101337.38
2023-08-08T19:09:30.334Z,101338.59
2023-08-08T19:11:56.817Z,101341.56
2023-08-08T19:14:23.335Z,101336.75
2023-08-08T19:16:50.809Z,101349.06
2023-08-08T19:19:17.279Z,101345.56
2023-08-08T19:21:43.715Z,101337.25
2023-08-08T19:24:10.145Z,101328.44
2023-08-08T19:26:36.645Z,101329.09
2023-08-08T19:29:03.601Z,101336.91
2023-08-08T19:31:30.049Z,101324.59
2023-08-08T19:34:06.097Z,101316.94
2023-08-08T19:36:33.167Z,101323.25
2023-08-08T19:38:59.612Z,101333.56
2023-08-08T19:41:26.034Z,101331.91
2023-08-08T19:43:52.504Z,101336.56
2023-08-08T19:46:19.039Z,101342.53
2023-08-08T19:48:47.252Z,101332.41
2023-08-08T19:51:13.898Z,101311.44
2023-08-08T19:53:40.335Z,101315.78
2023-08-08T19:56:06.807Z,101307.97
2023-08-08T19:58:33.255Z,101328.91
2023-08-08T20:00:59.731Z,101318.94
2023-08-08T20:03:26.500Z,101308.97
2023-08-08T20:05:53.005Z,101315.44
2023-08-08T20:08:19.493Z,101332.56
2023-08-08T20:10:45.947Z,101327.75
2023-08-08T20:13:13.569Z,101316.91
2023-08-08T20:15:40.190Z,101300.63
2023-08-08T20:18:06.641Z,101322.06
2023-08-08T20:20:33.660Z,101309.94
2023-08-08T20:23:00.164Z,101306.28
2023-08-08T20:25:26.744Z,101306.28
2023-08-08T20:27:53.218Z,101310.94
2023-08-08T20:30:20.004Z,101322.22
2023-08-08T20:32:46.475Z,101338.03
2023-08-08T20:35:12.977Z,101335.50
2023-08-08T20:37:39.444Z,101318.19
2023-08-08T20:40:06.430Z,101324.88
2023-08-08T20:42:32.879Z,101316.22
2023-08-08T20:44:59.575Z,101327.16
2023-08-08T20:47:26.014Z,101327.28
2023-08-08T20:49:52.632Z,101326.97
2023-08-08T20:52:19.101Z,101310.53
2023-08-08T20:54:45.525Z,101299.38
2023-08-08T20:57:11.999Z,101306.19
2023-08-08T20:59:38.413Z,101299.38
2023-08-08T21:02:04.962Z,101289.91
2023-08-08T21:04:31.422Z,101289.25
2023-08-08T21:06:57.911Z,101289.22
2023-08-08T21:09:24.376Z,101307.19
2023-08-08T21:11:50.840Z,101302.84
2023-08-08T21:14:17.282Z,101296.50
2023-08-08T21:16:43.866Z,101281.72
2023-08-08T21:19:10.394Z,101290.22
2023-08-08T21:21:36.859Z,101286.53
2023-08-08T21:24:03.616Z,101271.63
2023-08-08T21:26:38.612Z,101270.25
2023-08-08T21:29:06.549Z,101278.09
2023-08-08T21:31:33.359Z,101277.56
2023-08-08T21:33:59.934Z,101264.94
2023-08-08T21:36:26.388Z,101239.31
2023-08-08T21:38:52.840Z,101270.91
2023-08-08T21:41:19.283Z,101288.50
2023-08-08T21:43:45.746Z,101285.31
2023-08-08T21:46:12.722Z,101288.28
2023-08-08T21:48:39.348Z,101306.09
2023-08-08T21:51:05.946Z,101296.47
2023-08-08T21:53:34.221Z,101300.28
2023-08-08T21:56:02.092Z,101304.44
2023-08-08T21:58:29.056Z,101297.31
2023-08-08T22:00:55.637Z,101307.44
2023-08-08T22:03:22.289Z,101312.59
2023-08-08T22:05:48.910Z,101307.59
2023-08-08T22:08:15.522Z,101314.09
2023-08-08T22:10:42.090Z,101320.25
2023-08-08T22:13:09.372Z,101315.78
2023-08-08T22:15:35.866Z,101320.06
2023-08-08T22:18:14.817Z,101315.91
2023-08-08T22:20:42.215Z,101316.59
2023-08-08T22:23:14.053Z,101317.59
2023-08-08T22:25:46.615Z,101307.75
2023-08-08T22:28:13.093Z,101328.38
2023-08-08T22:30:39.659Z,101326.72
2023-08-08T22:33:06.150Z,101319.59
2023-08-08T22:35:32.847Z,101307.94
2023-08-08T22:37:59.294Z,101294.97
2023-08-08T22:40:25.718Z,101317.72
2023-08-08T22:42:52.231Z,101312.09
2023-08-08T22:45:19.237Z,101317.25
2023-08-08T22:47:46.129Z,101313.06
2023-08-08T22:50:12.711Z,101311.75
2023-08-08T22:52:39.246Z,101304.75
2023-08-08T22:55:06.527Z,101310.41
2023-08-08T22:57:33.018Z,101301.25
2023-08-08T22:59:59.491Z,101283.50
2023-08-08T23:02:26.115Z,101280.72
2023-08-08T23:04:52.643Z,101291.38
2023-08-08T23:07:19.534Z,101301.81
2023-08-08T23:09:46.204Z,101294.34
2023-08-08T23:12:12.731Z,101281.53
2023-08-08T23:14:39.183Z,101301.16
2023-08-08T23:17:05.629Z,101289.03
2023-08-08T23:19:32.109Z,101303.66
2023-08-08T23:21:58.631Z,101292.84
2023-08-08T23:24:25.133Z,101302.16
2023-08-08T23:26:51.579Z,101305.81
2023-08-08T23:29:18.036Z,101302.66
2023-08-08T23:31:44.533Z,101306.31
2023-08-08T23:34:11.049Z,101294.16
2023-08-08T23:36:37.608Z,101294.50
2023-08-08T23:39:05.662Z,101303.34
2023-08-08T23:41:32.364Z,101308.47
2023-08-08T23:43:58.875Z,101308.66
2023-08-08T23:46:26.108Z,101313.97
2023-08-08T23:48:52.584Z,101307.50
2023-08-08T23:51:19.026Z,101313.13
2023-08-08T23:53:45.864Z,101317.47
2023-08-08T23:56:12.320Z,101309.31
2023-08-08T23:58:38.828Z,101318.97
